sensor_id;sensor_type;location;lat;lon;timestamp;P1;durP1;ratioP1;P2;durP2;ratioP2
75526;SDS011;64107;49.248;7.006;2024-03-22T00:01:54;5.47;;;3.60;;
75526;SDS011;64107;49.248;7.006;2024-03-22T00:04:21;5.53;;;3.65;;
75526;SDS011;64107;49.248;7.006;2024-03-22T00:06:47;4.47;;;3.17;;
75526;SDS011;64107;49.248;7.006;2024-03-22T00:09:14;5.93;;;3.45;;
75526;SDS011;64107;49.248;7.006;2024-03-22T00:11:40;4.75;;;3.42;;
75526;SDS011;64107;49.248;7.006;2024-03-22T00:14:07;4.88;;;3.15;;
75526;SDS011;64107;49.248;7.006;2024-03-22T00:16:33;4.82;;;3.17;;
75526;SDS011;64107;49.248;7.006;2024-03-22T00:18:59;7.10;;;3.50;;
75526;SDS011;64107;49.248;7.006;2024-03-22T00:21:25;6.40;;;3.88;;
75526;SDS011;64107;49.248;7.006;2024-03-22T00:23:51;6.82;;;4.05;;
75526;SDS011;64107;49.248;7.006;2024-03-22T00:26:17;8.15;;;3.65;;
75526;SDS011;64107;49.248;7.006;2024-03-22T00:28:42;6.78;;;3.97;;
75526;SDS011;64107;49.248;7.006;2024-03-22T00:31:09;7.45;;;4.10;;
75526;SDS011;64107;49.248;7.006;2024-03-22T00:33:35;7.65;;;4.15;;
75526;SDS011;64107;49.248;7.006;2024-03-22T00:36:01;6.65;;;3.85;;
75526;SDS011;64107;49.248;7.006;2024-03-22T00:38:27;8.30;;;4.25;;
75526;SDS011;64107;49.248;7.006;2024-03-22T00:40:53;6.38;;;4.03;;
75526;SDS011;64107;49.248;7.006;2024-03-22T00:43:19;7.50;;;4.15;;
75526;SDS011;64107;49.248;7.006;2024-03-22T00:45:46;6.25;;;3.53;;
75526;SDS011;64107;49.248;7.006;2024-03-22T00:48:12;5.32;;;3.42;;
75526;SDS011;64107;49.248;7.006;2024-03-22T00:50:38;6.60;;;3.45;;
75526;SDS011;64107;49.248;7.006;2024-03-22T00:53:04;6.78;;;4.00;;
75526;SDS011;64107;49.248;7.006;2024-03-22T00:55:31;6.15;;;3.67;;
75526;SDS011;64107;49.248;7.006;2024-03-22T00:57:57;6.15;;;3.75;;
75526;SDS011;64107;49.248;7.006;2024-03-22T01:00:23;10.07;;;4.13;;
75526;SDS011;64107;49.248;7.006;2024-03-22T01:02:50;6.55;;;4.15;;
75526;SDS011;64107;49.248;7.006;2024-03-22T01:05:16;12.02;;;5.00;;
75526;SDS011;64107;49.248;7.006;2024-03-22T01:07:42;5.93;;;3.65;;
75526;SDS011;64107;49.248;7.006;2024-03-22T01:10:09;8.10;;;4.25;;
75526;SDS011;64107;49.248;7.006;2024-03-22T01:12:35;6.93;;;4.28;;
75526;SDS011;64107;49.248;7.006;2024-03-22T01:15:01;8.90;;;4.13;;
75526;SDS011;64107;49.248;7.006;2024-03-22T01:17:28;9.52;;;3.83;;
75526;SDS011;64107;49.248;7.006;2024-03-22T01:19:54;6.57;;;4.10;;
75526;SDS011;64107;49.248;7.006;2024-03-22T01:22:20;7.18;;;4.07;;
75526;SDS011;64107;49.248;7.006;2024-03-22T01:24:46;7.07;;;3.60;;
75526;SDS011;64107;49.248;7.006;2024-03-22T01:27:12;6.90;;;4.20;;
75526;SDS011;64107;49.248;7.006;2024-03-22T01:29:38;10.93;;;4.15;;
75526;SDS011;64107;49.248;7.006;2024-03-22T01:32:04;11.57;;;4.30;;
75526;SDS011;64107;49.248;7.006;2024-03-22T01:34:30;9.95;;;4.70;;
75526;SDS011;64107;49.248;7.006;2024-03-22T01:36:56;8.30;;;4.10;;
75526;SDS011;64107;49.248;7.006;2024-03-22T01:39:21;8.65;;;4.38;;
75526;SDS011;64107;49.248;7.006;2024-03-22T01:41:48;8.52;;;4.75;;
75526;SDS011;64107;49.248;7.006;2024-03-22T01:44:14;7.80;;;4.15;;
75526;SDS011;64107;49.248;7.006;2024-03-22T01:46:40;8.88;;;4.13;;
75526;SDS011;64107;49.248;7.006;2024-03-22T01:49:08;6.15;;;4.50;;
75526;SDS011;64107;49.248;7.006;2024-03-22T01:51:35;11.15;;;3.97;;
75526;SDS011;64107;49.248;7.006;2024-03-22T01:54:01;7.88;;;4.40;;
75526;SDS011;64107;49.248;7.006;2024-03-22T01:56:27;7.72;;;4.53;;
75526;SDS011;64107;49.248;7.006;2024-03-22T01:58:53;6.63;;;3.90;;
75526;SDS011;64107;49.248;7.006;2024-03-22T02:01:20;8.88;;;4.07;;
75526;SDS011;64107;49.248;7.006;2024-03-22T02:03:46;6.50;;;4.25;;
75526;SDS011;64107;49.248;7.006;2024-03-22T02:06:12;9.30;;;3.88;;
75526;SDS011;64107;49.248;7.006;2024-03-22T02:08:39;6.57;;;3.75;;
75526;SDS011;64107;49.248;7.006;2024-03-22T02:11:06;6.90;;;3.42;;
75526;SDS011;64107;49.248;7.006;2024-03-22T02:13:32;8.43;;;3.75;;
75526;SDS011;64107;49.248;7.006;2024-03-22T02:15:58;6.40;;;3.85;;
75526;SDS011;64107;49.248;7.006;2024-03-22T02:18:24;4.93;;;3.35;;
75526;SDS011;64107;49.248;7.006;2024-03-22T02:20:50;6.47;;;4.15;;
75526;SDS011;64107;49.248;7.006;2024-03-22T02:23:16;8.23;;;3.72;;
75526;SDS011;64107;49.248;7.006;2024-03-22T02:25:42;6.30;;;3.67;;
75526;SDS011;64107;49.248;7.006;2024-03-22T02:28:08;5.80;;;3.88;;
75526;SDS011;64107;49.248;7.006;2024-03-22T02:30:34;5.70;;;3.67;;
75526;SDS011;64107;49.248;7.006;2024-03-22T02:33:00;6.75;;;3.53;;
75526;SDS011;64107;49.248;7.006;2024-03-22T02:35:26;4.03;;;3.42;;
75526;SDS011;64107;49.248;7.006;2024-03-22T02:37:52;6.15;;;3.47;;
75526;SDS011;64107;49.248;7.006;2024-03-22T02:40:18;4.07;;;2.83;;
75526;SDS011;64107;49.248;7.006;2024-03-22T02:42:43;5.90;;;3.30;;
75526;SDS011;64107;49.248;7.006;2024-03-22T02:45:10;4.40;;;3.08;;
75526;SDS011;64107;49.248;7.006;2024-03-22T02:47:36;6.38;;;3.60;;
75526;SDS011;64107;49.248;7.006;2024-03-22T02:50:02;8.02;;;3.88;;
75526;SDS011;64107;49.248;7.006;2024-03-22T02:52:28;6.20;;;3.33;;
75526;SDS011;64107;49.248;7.006;2024-03-22T02:54:54;10.07;;;4.32;;
75526;SDS011;64107;49.248;7.006;2024-03-22T02:57:19;7.45;;;3.42;;
75526;SDS011;64107;49.248;7.006;2024-03-22T02:59:46;4.78;;;3.05;;
75526;SDS011;64107;49.248;7.006;2024-03-22T03:02:12;7.68;;;3.65;;
75526;SDS011;64107;49.248;7.006;2024-03-22T03:04:38;5.47;;;2.78;;
75526;SDS011;64107;49.248;7.006;2024-03-22T03:07:04;3.78;;;2.80;;
75526;SDS011;64107;49.248;7.006;2024-03-22T03:09:30;5.13;;;2.95;;
75526;SDS011;64107;49.248;7.006;2024-03-22T03:11:56;7.13;;;3.42;;
75526;SDS011;64107;49.248;7.006;2024-03-22T03:14:21;5.50;;;3.00;;
75526;SDS011;64107;49.248;7.006;2024-03-22T03:16:47;4.38;;;3.28;;
75526;SDS011;64107;49.248;7.006;2024-03-22T03:19:13;5.07;;;3.50;;
75526;SDS011;64107;49.248;7.006;2024-03-22T03:21:39;9.07;;;3.83;;
75526;SDS011;64107;49.248;7.006;2024-03-22T03:24:05;4.85;;;3.30;;
75526;SDS011;64107;49.248;7.006;2024-03-22T03:26:34;6.85;;;3.00;;
75526;SDS011;64107;49.248;7.006;2024-03-22T03:29:00;6.57;;;3.90;;
75526;SDS011;64107;49.248;7.006;2024-03-22T03:31:26;8.02;;;4.00;;
75526;SDS011;64107;49.248;7.006;2024-03-22T03:33:52;6.57;;;3.85;;
75526;SDS011;64107;49.248;7.006;2024-03-22T03:38:43;9.85;;;3.97;;
75526;SDS011;64107;49.248;7.006;2024-03-22T03:41:09;11.55;;;4.05;;
75526;SDS011;64107;49.248;7.006;2024-03-22T03:43:35;9.85;;;3.80;;
75526;SDS011;64107;49.248;7.006;2024-03-22T03:46:01;5.10;;;3.33;;
75526;SDS011;64107;49.248;7.006;2024-03-22T03:48:27;6.35;;;3.70;;
75526;SDS011;64107;49.248;7.006;2024-03-22T03:50:56;4.90;;;3.25;;
75526;SDS011;64107;49.248;7.006;2024-03-22T03:53:27;11.27;;;4.10;;
75526;SDS011;64107;49.248;7.006;2024-03-22T03:55:53;7.38;;;3.65;;
75526;SDS011;64107;49.248;7.006;2024-03-22T03:58:19;6.10;;;3.45;;
75526;SDS011;64107;49.248;7.006;2024-03-22T04:00:45;6.53;;;4.30;;
75526;SDS011;64107;49.248;7.006;2024-03-22T04:03:11;6.72;;;3.72;;
75526;SDS011;64107;49.248;7.006;2024-03-22T04:05:37;5.07;;;3.42;;
75526;SDS011;64107;49.248;7.006;2024-03-22T04:08:03;6.20;;;3.47;;
75526;SDS011;64107;49.248;7.006;2024-03-22T04:10:29;7.80;;;3.58;;
75526;SDS011;64107;49.248;7.006;2024-03-22T04:15:21;6.30;;;3.30;;
75526;SDS011;64107;49.248;7.006;2024-03-22T04:17:47;7.45;;;3.80;;
75526;SDS011;64107;49.248;7.006;2024-03-22T04:20:13;7.28;;;4.20;;
75526;SDS011;64107;49.248;7.006;2024-03-22T04:25:05;4.97;;;2.97;;
75526;SDS011;64107;49.248;7.006;2024-03-22T04:27:31;8.70;;;3.60;;
75526;SDS011;64107;49.248;7.006;2024-03-22T04:32:23;6.75;;;3.78;;
75526;SDS011;64107;49.248;7.006;2024-03-22T04:37:15;5.72;;;3.45;;
75526;SDS011;64107;49.248;7.006;2024-03-22T04:39:41;7.13;;;3.53;;
75526;SDS011;64107;49.248;7.006;2024-03-22T04:44:32;7.28;;;4.25;;
75526;SDS011;64107;49.248;7.006;2024-03-22T04:49:24;6.57;;;3.90;;
75526;SDS011;64107;49.248;7.006;2024-03-22T04:51:50;8.00;;;4.05;;
75526;SDS011;64107;49.248;7.006;2024-03-22T04:56:42;6.78;;;4.22;;
75526;SDS011;64107;49.248;7.006;2024-03-22T05:01:34;9.70;;;4.30;;
75526;SDS011;64107;49.248;7.006;2024-03-22T05:06:26;8.25;;;4.75;;
75526;SDS011;64107;49.248;7.006;2024-03-22T05:11:17;6.53;;;3.50;;
75526;SDS011;64107;49.248;7.006;2024-03-22T05:13:43;8.35;;;4.50;;
75526;SDS011;64107;49.248;7.006;2024-03-22T05:18:36;9.20;;;4.10;;
75526;SDS011;64107;49.248;7.006;2024-03-22T05:23:28;8.15;;;4.43;;
75526;SDS011;64107;49.248;7.006;2024-03-22T05:25:54;10.32;;;4.70;;
75526;SDS011;64107;49.248;7.006;2024-03-22T05:30:46;11.18;;;5.13;;
75526;SDS011;64107;49.248;7.006;2024-03-22T05:33:12;7.97;;;4.00;;
75526;SDS011;64107;49.248;7.006;2024-03-22T05:35:38;8.63;;;3.97;;
75526;SDS011;64107;49.248;7.006;2024-03-22T05:38:06;8.23;;;4.70;;
75526;SDS011;64107;49.248;7.006;2024-03-22T05:42:58;8.20;;;4.05;;
75526;SDS011;64107;49.248;7.006;2024-03-22T05:47:49;9.35;;;4.25;;
75526;SDS011;64107;49.248;7.006;2024-03-22T05:50:15;9.02;;;4.75;;
75526;SDS011;64107;49.248;7.006;2024-03-22T05:52:41;8.95;;;5.30;;
75526;SDS011;64107;49.248;7.006;2024-03-22T05:55:07;7.30;;;3.78;;
75526;SDS011;64107;49.248;7.006;2024-03-22T05:57:33;9.40;;;4.95;;
75526;SDS011;64107;49.248;7.006;2024-03-22T05:59:59;9.20;;;4.70;;
75526;SDS011;64107;49.248;7.006;2024-03-22T06:02:25;6.85;;;4.57;;
75526;SDS011;64107;49.248;7.006;2024-03-22T06:04:51;8.52;;;5.28;;
75526;SDS011;64107;49.248;7.006;2024-03-22T06:07:17;8.07;;;4.68;;
75526;SDS011;64107;49.248;7.006;2024-03-22T06:09:43;7.88;;;4.40;;
75526;SDS011;64107;49.248;7.006;2024-03-22T06:12:12;6.90;;;4.47;;
75526;SDS011;64107;49.248;7.006;2024-03-22T06:14:39;9.45;;;4.80;;
75526;SDS011;64107;49.248;7.006;2024-03-22T06:17:05;8.15;;;4.28;;
75526;SDS011;64107;49.248;7.006;2024-03-22T06:19:31;7.95;;;4.65;;
75526;SDS011;64107;49.248;7.006;2024-03-22T06:21:57;9.57;;;4.55;;
75526;SDS011;64107;49.248;7.006;2024-03-22T06:24:23;7.63;;;5.00;;
75526;SDS011;64107;49.248;7.006;2024-03-22T06:26:48;6.10;;;5.05;;
75526;SDS011;64107;49.248;7.006;2024-03-22T06:29:15;8.68;;;5.45;;
75526;SDS011;64107;49.248;7.006;2024-03-22T06:31:41;8.85;;;4.57;;
75526;SDS011;64107;49.248;7.006;2024-03-22T06:34:07;9.45;;;5.07;;
75526;SDS011;64107;49.248;7.006;2024-03-22T06:36:33;5.68;;;4.13;;
75526;SDS011;64107;49.248;7.006;2024-03-22T06:38:59;7.75;;;5.47;;
75526;SDS011;64107;49.248;7.006;2024-03-22T06:41:25;14.18;;;5.65;;
75526;SDS011;64107;49.248;7.006;2024-03-22T06:43:51;7.85;;;4.60;;
75526;SDS011;64107;49.248;7.006;2024-03-22T06:46:17;11.32;;;4.68;;
75526;SDS011;64107;49.248;7.006;2024-03-22T06:48:44;11.00;;;5.70;;
75526;SDS011;64107;49.248;7.006;2024-03-22T06:51:11;9.38;;;5.18;;
75526;SDS011;64107;49.248;7.006;2024-03-22T06:53:37;8.55;;;5.07;;
75526;SDS011;64107;49.248;7.006;2024-03-22T06:56:03;7.90;;;4.97;;
75526;SDS011;64107;49.248;7.006;2024-03-22T06:58:29;5.82;;;4.40;;
75526;SDS011;64107;49.248;7.006;2024-03-22T07:00:55;11.68;;;4.57;;
75526;SDS011;64107;49.248;7.006;2024-03-22T07:03:21;8.23;;;4.95;;
75526;SDS011;64107;49.248;7.006;2024-03-22T07:05:47;7.18;;;4.35;;
75526;SDS011;64107;49.248;7.006;2024-03-22T07:08:13;10.90;;;5.45;;
75526;SDS011;64107;49.248;7.006;2024-03-22T07:10:39;12.35;;;5.93;;
75526;SDS011;64107;49.248;7.006;2024-03-22T07:13:05;7.95;;;4.65;;
75526;SDS011;64107;49.248;7.006;2024-03-22T07:15:31;9.52;;;4.72;;
75526;SDS011;64107;49.248;7.006;2024-03-22T07:17:58;7.03;;;5.05;;
75526;SDS011;64107;49.248;7.006;2024-03-22T07:20:24;7.38;;;5.18;;
75526;SDS011;64107;49.248;7.006;2024-03-22T07:22:50;10.18;;;5.63;;
75526;SDS011;64107;49.248;7.006;2024-03-22T07:25:17;9.60;;;6.05;;
75526;SDS011;64107;49.248;7.006;2024-03-22T07:27:42;8.55;;;4.53;;
75526;SDS011;64107;49.248;7.006;2024-03-22T07:30:09;14.10;;;5.40;;
75526;SDS011;64107;49.248;7.006;2024-03-22T07:32:35;11.23;;;6.65;;
75526;SDS011;64107;49.248;7.006;2024-03-22T07:35:02;9.63;;;5.07;;
75526;SDS011;64107;49.248;7.006;2024-03-22T07:37:28;8.98;;;5.47;;
75526;SDS011;64107;49.248;7.006;2024-03-22T07:39:54;15.15;;;7.13;;
75526;SDS011;64107;49.248;7.006;2024-03-22T07:42:21;11.20;;;6.53;;
75526;SDS011;64107;49.248;7.006;2024-03-22T07:44:47;11.95;;;6.50;;
75526;SDS011;64107;49.248;7.006;2024-03-22T07:47:13;10.98;;;6.70;;
75526;SDS011;64107;49.248;7.006;2024-03-22T07:49:39;13.75;;;6.65;;
75526;SDS011;64107;49.248;7.006;2024-03-22T07:52:05;16.17;;;6.38;;
75526;SDS011;64107;49.248;7.006;2024-03-22T07:54:31;9.25;;;6.28;;
75526;SDS011;64107;49.248;7.006;2024-03-22T07:56:57;13.75;;;6.20;;
75526;SDS011;64107;49.248;7.006;2024-03-22T07:59:23;10.95;;;5.72;;
75526;SDS011;64107;49.248;7.006;2024-03-22T08:01:49;10.93;;;6.25;;
75526;SDS011;64107;49.248;7.006;2024-03-22T08:04:15;11.70;;;6.65;;
75526;SDS011;64107;49.248;7.006;2024-03-22T08:06:41;14.73;;;6.72;;
75526;SDS011;64107;49.248;7.006;2024-03-22T08:09:08;12.32;;;7.53;;
75526;SDS011;64107;49.248;7.006;2024-03-22T08:11:33;15.82;;;7.70;;
75526;SDS011;64107;49.248;7.006;2024-03-22T08:13:59;13.95;;;8.18;;
75526;SDS011;64107;49.248;7.006;2024-03-22T08:16:29;12.20;;;6.57;;
75526;SDS011;64107;49.248;7.006;2024-03-22T08:18:55;10.48;;;7.03;;
75526;SDS011;64107;49.248;7.006;2024-03-22T08:21:22;11.55;;;7.25;;
75526;SDS011;64107;49.248;7.006;2024-03-22T08:23:48;10.55;;;6.85;;
75526;SDS011;64107;49.248;7.006;2024-03-22T08:26:14;13.35;;;6.40;;
75526;SDS011;64107;49.248;7.006;2024-03-22T08:28:40;12.13;;;7.35;;
75526;SDS011;64107;49.248;7.006;2024-03-22T08:31:06;15.32;;;7.78;;
75526;SDS011;64107;49.248;7.006;2024-03-22T08:33:31;13.05;;;7.95;;
75526;SDS011;64107;49.248;7.006;2024-03-22T08:35:57;14.70;;;6.28;;
75526;SDS011;64107;49.248;7.006;2024-03-22T08:38:23;14.88;;;8.05;;
75526;SDS011;64107;49.248;7.006;2024-03-22T08:40:50;8.93;;;5.43;;
75526;SDS011;64107;49.248;7.006;2024-03-22T08:43:16;12.30;;;6.85;;
75526;SDS011;64107;49.248;7.006;2024-03-22T08:45:42;15.60;;;7.40;;
75526;SDS011;64107;49.248;7.006;2024-03-22T08:48:08;18.73;;;6.30;;
75526;SDS011;64107;49.248;7.006;2024-03-22T08:50:34;15.20;;;6.88;;
75526;SDS011;64107;49.248;7.006;2024-03-22T08:53:00;16.33;;;7.88;;
75526;SDS011;64107;49.248;7.006;2024-03-22T08:55:29;11.13;;;7.38;;
75526;SDS011;64107;49.248;7.006;2024-03-22T08:57:56;13.73;;;7.68;;
75526;SDS011;64107;49.248;7.006;2024-03-22T09:00:21;14.65;;;7.20;;
75526;SDS011;64107;49.248;7.006;2024-03-22T09:02:47;13.35;;;6.68;;
75526;SDS011;64107;49.248;7.006;2024-03-22T09:05:14;15.55;;;7.38;;
75526;SDS011;64107;49.248;7.006;2024-03-22T09:07:40;11.38;;;7.32;;
75526;SDS011;64107;49.248;7.006;2024-03-22T09:10:06;11.88;;;7.60;;
75526;SDS011;64107;49.248;7.006;2024-03-22T09:12:32;10.88;;;6.22;;
75526;SDS011;64107;49.248;7.006;2024-03-22T09:14:58;11.80;;;7.50;;
75526;SDS011;64107;49.248;7.006;2024-03-22T09:17:25;11.10;;;7.18;;
75526;SDS011;64107;49.248;7.006;2024-03-22T09:19:51;13.82;;;7.13;;
75526;SDS011;64107;49.248;7.006;2024-03-22T09:22:17;9.80;;;6.45;;
75526;SDS011;64107;49.248;7.006;2024-03-22T09:24:43;10.55;;;6.70;;
75526;SDS011;64107;49.248;7.006;2024-03-22T09:27:09;11.40;;;7.00;;
75526;SDS011;64107;49.248;7.006;2024-03-22T09:29:38;10.82;;;6.05;;
75526;SDS011;64107;49.248;7.006;2024-03-22T09:32:04;11.85;;;7.22;;
75526;SDS011;64107;49.248;7.006;2024-03-22T09:34:30;9.38;;;5.13;;
75526;SDS011;64107;49.248;7.006;2024-03-22T09:36:56;10.52;;;6.05;;
75526;SDS011;64107;49.248;7.006;2024-03-22T09:39:22;9.18;;;4.55;;
75526;SDS011;64107;49.248;7.006;2024-03-22T09:41:48;13.55;;;6.18;;
75526;SDS011;64107;49.248;7.006;2024-03-22T09:44:17;9.10;;;6.03;;
75526;SDS011;64107;49.248;7.006;2024-03-22T09:46:43;10.35;;;6.93;;
75526;SDS011;64107;49.248;7.006;2024-03-22T09:49:10;10.15;;;6.90;;
75526;SDS011;64107;49.248;7.006;2024-03-22T09:51:37;8.32;;;5.43;;
75526;SDS011;64107;49.248;7.006;2024-03-22T09:54:03;13.40;;;6.63;;
75526;SDS011;64107;49.248;7.006;2024-03-22T09:56:30;8.10;;;5.15;;
75526;SDS011;64107;49.248;7.006;2024-03-22T09:58:56;10.73;;;6.72;;
75526;SDS011;64107;49.248;7.006;2024-03-22T10:01:23;8.80;;;6.32;;
75526;SDS011;64107;49.248;7.006;2024-03-22T10:03:50;9.85;;;5.43;;
75526;SDS011;64107;49.248;7.006;2024-03-22T10:06:16;9.48;;;5.75;;
75526;SDS011;64107;49.248;7.006;2024-03-22T10:08:43;14.60;;;6.00;;
75526;SDS011;64107;49.248;7.006;2024-03-22T10:11:10;8.05;;;4.50;;
75526;SDS011;64107;49.248;7.006;2024-03-22T10:13:36;13.60;;;4.13;;
75526;SDS011;64107;49.248;7.006;2024-03-22T10:16:02;9.50;;;5.97;;
75526;SDS011;64107;49.248;7.006;2024-03-22T10:18:28;9.40;;;5.25;;
75526;SDS011;64107;49.248;7.006;2024-03-22T10:20:59;3.35;;;2.88;;
75526;SDS011;64107;49.248;7.006;2024-03-22T10:23:25;6.05;;;3.97;;
75526;SDS011;64107;49.248;7.006;2024-03-22T10:25:51;5.75;;;3.67;;
75526;SDS011;64107;49.248;7.006;2024-03-22T10:28:17;7.55;;;4.68;;
75526;SDS011;64107;49.248;7.006;2024-03-22T10:30:43;10.77;;;6.35;;
75526;SDS011;64107;49.248;7.006;2024-03-22T10:33:10;6.40;;;4.68;;
75526;SDS011;64107;49.248;7.006;2024-03-22T10:35:36;7.70;;;5.57;;
75526;SDS011;64107;49.248;7.006;2024-03-22T10:38:03;5.45;;;4.30;;
75526;SDS011;64107;49.248;7.006;2024-03-22T10:40:29;12.07;;;7.50;;
75526;SDS011;64107;49.248;7.006;2024-03-22T10:42:55;8.38;;;5.40;;
75526;SDS011;64107;49.248;7.006;2024-03-22T10:45:22;6.43;;;4.78;;
75526;SDS011;64107;49.248;7.006;2024-03-22T10:47:50;5.78;;;3.80;;
75526;SDS011;64107;49.248;7.006;2024-03-22T10:50:17;5.70;;;3.10;;
75526;SDS011;64107;49.248;7.006;2024-03-22T10:52:56;6.55;;;4.50;;
75526;SDS011;64107;49.248;7.006;2024-03-22T10:55:33;6.97;;;3.88;;
75526;SDS011;64107;49.248;7.006;2024-03-22T10:58:00;9.75;;;5.13;;
75526;SDS011;64107;49.248;7.006;2024-03-22T11:00:44;3.28;;;2.95;;
75526;SDS011;64107;49.248;7.006;2024-03-22T11:03:10;7.88;;;4.85;;
75526;SDS011;64107;49.248;7.006;2024-03-22T11:05:48;7.20;;;4.07;;
75526;SDS011;64107;49.248;7.006;2024-03-22T11:08:23;14.45;;;7.88;;
75526;SDS011;64107;49.248;7.006;2024-03-22T11:10:49;7.80;;;4.40;;
75526;SDS011;64107;49.248;7.006;2024-03-22T11:13:16;7.85;;;4.95;;
75526;SDS011;64107;49.248;7.006;2024-03-22T11:15:42;10.07;;;7.38;;
75526;SDS011;64107;49.248;7.006;2024-03-22T11:18:08;17.45;;;11.25;;
75526;SDS011;64107;49.248;7.006;2024-03-22T11:20:37;13.82;;;8.40;;
75526;SDS011;64107;49.248;7.006;2024-03-22T11:23:03;8.85;;;5.63;;
75526;SDS011;64107;49.248;7.006;2024-03-22T11:25:33;8.65;;;5.57;;
75526;SDS011;64107;49.248;7.006;2024-03-22T11:27:59;8.60;;;5.43;;
75526;SDS011;64107;49.248;7.006;2024-03-22T11:30:28;11.48;;;7.45;;
75526;SDS011;64107;49.248;7.006;2024-03-22T11:32:54;9.68;;;6.22;;
75526;SDS011;64107;49.248;7.006;2024-03-22T11:35:20;11.05;;;5.05;;
75526;SDS011;64107;49.248;7.006;2024-03-22T11:37:48;10.63;;;6.45;;
75526;SDS011;64107;49.248;7.006;2024-03-22T11:40:14;13.75;;;6.30;;
75526;SDS011;64107;49.248;7.006;2024-03-22T11:42:41;9.38;;;4.65;;
75526;SDS011;64107;49.248;7.006;2024-03-22T11:45:10;12.05;;;7.50;;
75526;SDS011;64107;49.248;7.006;2024-03-22T11:47:36;8.15;;;4.90;;
75526;SDS011;64107;49.248;7.006;2024-03-22T11:50:03;7.80;;;4.85;;
75526;SDS011;64107;49.248;7.006;2024-03-22T11:52:29;13.40;;;5.93;;
75526;SDS011;64107;49.248;7.006;2024-03-22T11:54:55;11.02;;;6.00;;
75526;SDS011;64107;49.248;7.006;2024-03-22T11:57:22;9.10;;;5.22;;
75526;SDS011;64107;49.248;7.006;2024-03-22T11:59:48;9.57;;;4.82;;
75526;SDS011;64107;49.248;7.006;2024-03-22T12:02:14;12.40;;;5.68;;
75526;SDS011;64107;49.248;7.006;2024-03-22T12:04:41;9.35;;;5.97;;
75526;SDS011;64107;49.248;7.006;2024-03-22T12:07:14;10.35;;;5.95;;
75526;SDS011;64107;49.248;7.006;2024-03-22T12:09:46;6.63;;;5.63;;
75526;SDS011;64107;49.248;7.006;2024-03-22T12:12:12;11.48;;;7.30;;
75526;SDS011;64107;49.248;7.006;2024-03-22T12:14:39;7.65;;;4.75;;
75526;SDS011;64107;49.248;7.006;2024-03-22T12:17:05;12.90;;;6.45;;
75526;SDS011;64107;49.248;7.006;2024-03-22T12:19:31;13.05;;;5.75;;
75526;SDS011;64107;49.248;7.006;2024-03-22T12:21:57;13.80;;;8.25;;
75526;SDS011;64107;49.248;7.006;2024-03-22T12:24:24;11.90;;;6.55;;
75526;SDS011;64107;49.248;7.006;2024-03-22T12:26:50;15.93;;;7.70;;
75526;SDS011;64107;49.248;7.006;2024-03-22T12:29:16;12.00;;;7.68;;
75526;SDS011;64107;49.248;7.006;2024-03-22T12:31:43;13.77;;;9.18;;
75526;SDS011;64107;49.248;7.006;2024-03-22T12:34:09;9.75;;;4.80;;
75526;SDS011;64107;49.248;7.006;2024-03-22T12:36:35;11.73;;;5.78;;
75526;SDS011;64107;49.248;7.006;2024-03-22T12:39:01;7.38;;;4.00;;
75526;SDS011;64107;49.248;7.006;2024-03-22T12:41:31;8.63;;;5.78;;
75526;SDS011;64107;49.248;7.006;2024-03-22T12:43:58;5.28;;;3.85;;
75526;SDS011;64107;49.248;7.006;2024-03-22T12:46:24;7.93;;;3.35;;
75526;SDS011;64107;49.248;7.006;2024-03-22T12:48:50;8.23;;;5.65;;
75526;SDS011;64107;49.248;7.006;2024-03-22T12:51:16;8.98;;;5.93;;
75526;SDS011;64107;49.248;7.006;2024-03-22T12:53:42;5.88;;;4.07;;
75526;SDS011;64107;49.248;7.006;2024-03-22T12:56:08;12.13;;;6.18;;
75526;SDS011;64107;49.248;7.006;2024-03-22T12:58:34;10.02;;;5.78;;
75526;SDS011;64107;49.248;7.006;2024-03-22T13:01:00;7.30;;;3.72;;
75526;SDS011;64107;49.248;7.006;2024-03-22T13:03:27;8.43;;;4.07;;
75526;SDS011;64107;49.248;7.006;2024-03-22T13:05:53;4.55;;;2.83;;
75526;SDS011;64107;49.248;7.006;2024-03-22T13:08:19;4.80;;;3.53;;
75526;SDS011;64107;49.248;7.006;2024-03-22T13:10:45;10.52;;;5.25;;
75526;SDS011;64107;49.248;7.006;2024-03-22T13:13:12;11.45;;;6.90;;
75526;SDS011;64107;49.248;7.006;2024-03-22T13:15:40;6.32;;;3.47;;
75526;SDS011;64107;49.248;7.006;2024-03-22T13:18:07;7.85;;;4.47;;
75526;SDS011;64107;49.248;7.006;2024-03-22T13:20:34;9.43;;;6.05;;
75526;SDS011;64107;49.248;7.006;2024-03-22T13:23:00;6.90;;;4.13;;
75526;SDS011;64107;49.248;7.006;2024-03-22T13:25:26;6.32;;;3.42;;
75526;SDS011;64107;49.248;7.006;2024-03-22T13:27:52;7.20;;;4.70;;
75526;SDS011;64107;49.248;7.006;2024-03-22T13:30:19;8.10;;;4.90;;
75526;SDS011;64107;49.248;7.006;2024-03-22T13:32:45;8.18;;;4.68;;
75526;SDS011;64107;49.248;7.006;2024-03-22T13:35:10;7.53;;;3.75;;
75526;SDS011;64107;49.248;7.006;2024-03-22T13:37:37;6.07;;;2.95;;
75526;SDS011;64107;49.248;7.006;2024-03-22T13:40:03;7.38;;;4.57;;
75526;SDS011;64107;49.248;7.006;2024-03-22T13:42:29;6.53;;;4.13;;
75526;SDS011;64107;49.248;7.006;2024-03-22T13:44:58;10.25;;;5.95;;
75526;SDS011;64107;49.248;7.006;2024-03-22T13:47:24;7.75;;;3.53;;
75526;SDS011;64107;49.248;7.006;2024-03-22T13:49:51;5.78;;;3.88;;
75526;SDS011;64107;49.248;7.006;2024-03-22T13:52:17;4.22;;;2.75;;
75526;SDS011;64107;49.248;7.006;2024-03-22T13:54:45;11.50;;;5.57;;
75526;SDS011;64107;49.248;7.006;2024-03-22T13:57:11;7.20;;;4.32;;
75526;SDS011;64107;49.248;7.006;2024-03-22T13:59:37;10.30;;;6.32;;
75526;SDS011;64107;49.248;7.006;2024-03-22T14:02:05;8.85;;;5.43;;
75526;SDS011;64107;49.248;7.006;2024-03-22T14:04:31;6.72;;;5.13;;
75526;SDS011;64107;49.248;7.006;2024-03-22T14:06:57;8.55;;;4.95;;
75526;SDS011;64107;49.248;7.006;2024-03-22T14:09:23;6.00;;;3.60;;
75526;SDS011;64107;49.248;7.006;2024-03-22T14:11:51;11.25;;;5.10;;
75526;SDS011;64107;49.248;7.006;2024-03-22T14:14:17;7.60;;;4.88;;
75526;SDS011;64107;49.248;7.006;2024-03-22T14:16:43;7.93;;;4.20;;
75526;SDS011;64107;49.248;7.006;2024-03-22T14:19:09;6.68;;;4.75;;
75526;SDS011;64107;49.248;7.006;2024-03-22T14:21:36;6.15;;;4.07;;
75526;SDS011;64107;49.248;7.006;2024-03-22T14:24:03;5.20;;;4.00;;
75526;SDS011;64107;49.248;7.006;2024-03-22T14:26:29;8.75;;;5.00;;
75526;SDS011;64107;49.248;7.006;2024-03-22T14:28:55;7.85;;;5.32;;
75526;SDS011;64107;49.248;7.006;2024-03-22T14:31:21;9.40;;;5.10;;
75526;SDS011;64107;49.248;7.006;2024-03-22T14:33:47;10.00;;;5.85;;
75526;SDS011;64107;49.248;7.006;2024-03-22T14:36:13;9.45;;;5.47;;
75526;SDS011;64107;49.248;7.006;2024-03-22T14:38:39;5.95;;;4.65;;
75526;SDS011;64107;49.248;7.006;2024-03-22T14:41:05;4.95;;;3.40;;
75526;SDS011;64107;49.248;7.006;2024-03-22T14:43:31;6.57;;;3.88;;
75526;SDS011;64107;49.248;7.006;2024-03-22T14:45:59;8.02;;;3.53;;
75526;SDS011;64107;49.248;7.006;2024-03-22T14:48:26;8.90;;;5.30;;
75526;SDS011;64107;49.248;7.006;2024-03-22T14:50:52;5.68;;;3.47;;
75526;SDS011;64107;49.248;7.006;2024-03-22T14:53:18;4.07;;;2.20;;
75526;SDS011;64107;49.248;7.006;2024-03-22T14:55:54;4.35;;;2.78;;
75526;SDS011;64107;49.248;7.006;2024-03-22T14:58:23;5.25;;;3.97;;
75526;SDS011;64107;49.248;7.006;2024-03-22T15:00:55;3.85;;;2.80;;
75526;SDS011;64107;49.248;7.006;2024-03-22T15:03:22;6.10;;;4.47;;
75526;SDS011;64107;49.248;7.006;2024-03-22T15:05:51;9.18;;;4.78;;
75526;SDS011;64107;49.248;7.006;2024-03-22T15:08:18;5.63;;;3.75;;
75526;SDS011;64107;49.248;7.006;2024-03-22T15:10:44;4.38;;;2.92;;
75526;SDS011;64107;49.248;7.006;2024-03-22T15:13:11;9.70;;;5.68;;
75526;SDS011;64107;49.248;7.006;2024-03-22T15:15:38;3.97;;;2.78;;
75526;SDS011;64107;49.248;7.006;2024-03-22T15:18:04;5.32;;;3.65;;